createdAt,value
2017-03-29T00:06:52.574Z,23
2017-03-29T00:16:52.502Z,23
2017-03-29T00:26:52.480Z,24
2017-03-29T00:36:52.539Z,25
2017-03-29T00:46:52.483Z,25
2017-03-29T00:56:52.550Z,23
2017-03-29T01:06:52.531Z,24
2017-03-29T01:16:52.518Z,25
2017-03-29T01:26:52.532Z,27
2017-03-29T01:36:52.516Z,27
2017-03-29T01:46:52.469Z,25
2017-03-29T01:56:52.598Z,25
2017-03-29T02:06:52.475Z,23
2017-03-29T02:16:52.557Z,22
2017-03-29T02:26:52.509Z,22
2017-03-29T02:36:52.488Z,21
2017-03-29T02:46:52.534Z,18
2017-03-29T02:56:52.485Z,18
2017-03-29T03:06:52.457Z,17
2017-03-29T03:16:52.505Z,15
2017-03-29T03:26:52.518Z,16
2017-03-29T03:36:52.427Z,18
2017-03-29T03:46:52.502Z,17
2017-03-29T03:56:52.464Z,16
2017-03-29T04:06:52.527Z,16
2017-03-29T04:16:52.492Z,14
2017-03-29T04:26:52.457Z,16
2017-03-29T04:36:52.514Z,14
2017-03-29T04:46:52.466Z,13
2017-03-29T04:56:52.572Z,14
2017-03-29T05:06:52.519Z,12
2017-03-29T05:16:52.440Z,14
2017-03-29T05:26:52.543Z,15
2017-03-29T05:36:52.495Z,16
2017-03-29T05:46:52.442Z,18
2017-03-29T05:56:52.506Z,15
2017-03-29T06:06:52.451Z,20
2017-03-29T06:16:52.607Z,17
2017-03-29T06:26:52.537Z,14
2017-03-29T06:36:52.410Z,14
2017-03-29T06:46:52.418Z,14
2017-03-29T06:56:52.413Z,14
2017-03-29T07:06:52.466Z,13
2017-03-29T07:16:52.397Z,14
2017-03-29T07:26:52.394Z,13
2017-03-29T07:36:52.456Z,12
2017-03-29T07:46:52.400Z,13
2017-03-29T07:56:52.392Z,13
2017-03-29T08:06:52.387Z,13
2017-03-29T08:16:52.410Z,13
2017-03-29T08:26:52.408Z,13
2017-03-29T08:36:52.391Z,13
2017-03-29T08:46:52.406Z,12
2017-03-29T08:56:52.378Z,11
2017-03-29T09:06:52.395Z,10
2017-03-29T09:16:52.382Z,9
2017-03-29T09:26:52.405Z,9
2017-03-29T09:36:52.376Z,11
2017-03-29T09:46:52.391Z,10
2017-03-29T09:56:52.376Z,10
2017-03-29T10:06:52.408Z,8
2017-03-29T10:16:52.404Z,8
2017-03-29T10:26:52.645Z,9
2017-03-29T10:36:52.475Z,7
2017-03-29T10:46:52.455Z,8
2017-03-29T10:56:52.479Z,10
2017-03-29T11:06:52.477Z,11
2017-03-29T11:16:52.416Z,8
2017-03-29T11:26:52.528Z,11
2017-03-29T11:36:52.507Z,10
2017-03-29T11:46:52.510Z,11
2017-03-29T11:56:52.512Z,10
2017-03-29T12:06:52.613Z,10
2017-03-29T12:16:52.570Z,11
2017-03-29T12:26:52.482Z,10
2017-03-29T12:36:52.491Z,9
2017-03-29T12:46:52.517Z,11
2017-03-29T12:56:52.462Z,9
2017-03-29T13:06:52.475Z,10
2017-03-29T13:16:52.537Z,9
2017-03-29T13:26:52.485Z,10
2017-03-29T13:36:52.454Z,9
2017-03-29T13:46:52.517Z,10
2017-03-29T13:56:52.483Z,11
2017-03-29T14:06:52.469Z,13
2017-03-29T14:16:52.564Z,12
2017-03-29T14:26:52.481Z,12
2017-03-29T14:36:52.568Z,13
2017-03-29T14:46:52.481Z,12
2017-03-29T14:56:52.436Z,11
2017-03-29T15:06:52.500Z,12
2017-03-29T15:16:52.478Z,13
2017-03-29T15:26:52.423Z,12
2017-03-29T15:36:52.403Z,12
2017-03-29T15:46:52.442Z,13
2017-03-29T15:56:52.434Z,12
2017-03-29T16:06:52.425Z,12
2017-03-29T16:16:52.437Z,14
2017-03-29T16:26:52.474Z,14
2017-03-29T16:36:52.425Z,15
2017-03-29T16:46:53.977Z,15
2017-03-29T16:56:52.449Z,16
2017-03-29T17:06:52.468Z,14
2017-03-29T17:16:52.455Z,16
2017-03-29T17:26:52.460Z,16
2017-03-29T17:36:52.559Z,17
2017-03-29T17:46:52.515Z,18
2017-03-29T17:56:52.814Z,19
2017-03-29T18:06:52.563Z,19
2017-03-29T18:16:52.569Z,19
2017-03-29T18:26:52.449Z,19
2017-03-29T18:36:52.514Z,20
2017-03-29T18:46:53.009Z,20
2017-03-29T18:56:52.545Z,20
2017-03-29T19:06:52.644Z,21
2017-03-29T19:16:52.457Z,22
2017-03-29T19:26:52.521Z,21
2017-03-29T19:48:14.156Z,21
2017-03-29T19:56:52.576Z,22
2017-03-29T20:06:52.861Z,23
2017-03-29T20:16:52.529Z,22
2017-03-29T20:26:52.635Z,22
2017-03-29T20:36:52.506Z,23
2017-03-29T20:46:52.612Z,22
2017-03-29T20:56:52.685Z,21
2017-03-29T21:06:52.589Z,23
2017-03-29T21:16:52.516Z,22
2017-03-29T21:26:52.509Z,20
2017-03-29T21:36:52.445Z,21
2017-03-29T21:46:52.647Z,20
2017-03-29T21:56:52.500Z,18
2017-03-29T22:06:52.429Z,18
2017-03-29T22:16:52.581Z,19
2017-03-29T22:26:52.519Z,17
2017-03-29T22:36:52.410Z,18
2017-03-29T22:46:52.527Z,17
2017-03-29T22:56:52.552Z,18
2017-03-29T23:06:52.421Z,18
2017-03-29T23:16:52.452Z,18
2017-03-29T23:26:52.413Z,18
2017-03-29T23:36:52.509Z,18
2017-03-29T23:46:52.414Z,18
2017-03-29T23:56:52.426Z,18
